Kezdőlap
METAR-TAF:

METAR-TAF

Repülőterek :

Saint-Pierre repülőtér

Saint-Pierre, Saint-Pierre és Miquelon

földrajzi szélesség: 46-46N, földrajzi hosszúság: 056-10W, magasság: 3 m

Jelenlegi meteorológiai megfigyelések

A jelentés 15 perccel ezelõtt készült, 18:30 UTC
Déli szél 11 kt
Hőmérséklet 4°C
Páratartalom 81%
Légköri nyomás 1031 hPa
Látótávolság 10 km, vagy több
felhőtlen 1500 m magasságban, és nincs gomolyfelhõ

METAR: LFVP 121830Z AUTO 18011KT CAVOK 04/01 Q1031 TEMPO BKN012

Idő: 16:45 (18:45 UTC)

Előrejelzés

A jelentés 1 órával és 45 perccel ezelõtt készült, 17:00 UTC
Az előrejelzés 12-én 18 óra UTC és 13-én 03 óra UTC között érvényes
Déli szél 15 kt
Látótávolság 10 km, vagy több
felhőtlen 1500 m magasságban, és nincs gomolyfelhõ
12-én 21 óra UTC és 12-én 24 óra UTC között fokozatosan kialakuló
Látótávolság: 3000 m
Borult 1200 lábon
enyhe esõ, Párásság,

TAF: LFVP 121700Z 1218/1303 18015KT CAVOK BECMG 1221/1224 3000 -RA BR OVC012

Meteorológiai megfigyelések és előrejelzések több, mint 4000 repülőtéren (METAR és TAF jelentéseket).

A térképen piros és sárga pontok jelzik az elérhető meteorológiai állomásokat.

Mozgassa az egeret a pont fölött, hogy megjelenjen az állomás neve.

Azután kattintson az időjárási megfigyelések és előrejelzések megtekintéséhez.

A térkép megváltoztatása: kattintson a fekete keresztel jelölt zöld gombra ráközelítéshez, a vonallal jelölt zöld gombra távolításhoz, vagy a zöld nyilakra a szomszédos térképek eléréséhez.


METAR-TAF: